createdAt,value
2023-10-04T00:00:16.869Z,62.65
2023-10-04T00:03:08.774Z,62.75
2023-10-04T00:05:38.041Z,62.73
2023-10-04T00:08:06.610Z,62.74
2023-10-04T00:10:35.277Z,62.76
2023-10-04T00:13:04.269Z,62.78
2023-10-04T00:15:32.869Z,62.79
2023-10-04T00:18:01.292Z,62.72
2023-10-04T00:20:33.387Z,62.75
2023-10-04T00:23:03.744Z,62.69
2023-10-04T00:25:34.344Z,62.68
2023-10-04T00:28:03.938Z,62.76
2023-10-04T00:30:32.988Z,62.71
2023-10-04T00:33:05.035Z,62.64
2023-10-04T00:35:32.938Z,62.74
2023-10-04T00:38:01.841Z,62.72
2023-10-04T00:40:32.203Z,62.73
2023-10-04T00:43:02.313Z,62.94
2023-10-04T00:45:34.015Z,62.92
2023-10-04T00:48:07.447Z,62.91
2023-10-04T00:50:35.224Z,63.02
2023-10-04T00:53:11.974Z,63.02
2023-10-04T00:55:42.081Z,63.05
2023-10-04T00:58:12.010Z,63.06
2023-10-04T01:00:43.151Z,63.07
2023-10-04T01:03:11.602Z,63.10
2023-10-04T01:05:47.455Z,63.17
2023-10-04T01:08:16.916Z,63.14
2023-10-04T01:10:46.418Z,63.13
2023-10-04T01:13:18.643Z,63.26
2023-10-04T01:15:47.374Z,63.24
2023-10-04T01:18:17.241Z,63.24
2023-10-04T01:20:46.165Z,63.31
2023-10-04T01:23:13.784Z,63.36
2023-10-04T01:25:43.157Z,63.31
2023-10-04T01:28:18.614Z,63.39
2023-10-04T01:30:48.156Z,63.61
2023-10-04T01:33:20.159Z,63.57
2023-10-04T01:35:55.357Z,63.72
2023-10-04T01:38:28.601Z,63.92
2023-10-04T01:40:57.238Z,63.89
2023-10-04T01:43:26.886Z,63.95
2023-10-04T01:45:59.731Z,64.10
2023-10-04T01:48:32.543Z,64.02
2023-10-04T01:51:04.238Z,64.09
2023-10-04T01:53:34.840Z,64.15
2023-10-04T01:56:05.681Z,64.09
2023-10-04T01:58:33.285Z,64.19
2023-10-04T02:01:04.199Z,64.27
2023-10-04T02:03:32.121Z,64.22
2023-10-04T02:06:01.318Z,64.33
2023-10-04T02:08:29.530Z,64.40
2023-10-04T02:10:58.391Z,64.39
2023-10-04T02:13:28.364Z,64.45
2023-10-04T02:15:56.153Z,64.37
2023-10-04T02:18:23.990Z,64.51
2023-10-04T02:20:54.201Z,64.57
2023-10-04T02:23:22.363Z,64.61
2023-10-04T02:25:50.532Z,64.63
2023-10-04T02:28:25.262Z,64.70
2023-10-04T02:30:57.289Z,64.77
2023-10-04T02:33:34.672Z,64.82
2023-10-04T02:36:05.619Z,64.93
2023-10-04T02:38:35.171Z,64.93
2023-10-04T02:41:06.920Z,64.84
2023-10-04T02:43:34.549Z,64.89
2023-10-04T02:46:02.754Z,64.94
2023-10-04T02:48:33.494Z,64.90
2023-10-04T02:51:02.663Z,64.83
2023-10-04T02:53:30.888Z,64.90
2023-10-04T02:55:59.529Z,64.74
2023-10-04T02:58:27.532Z,64.82
2023-10-04T03:00:55.821Z,64.81
2023-10-04T03:03:26.516Z,64.85
2023-10-04T03:05:56.155Z,64.86
2023-10-04T03:08:24.814Z,64.95
2023-10-04T03:10:56.189Z,65.06
2023-10-04T03:13:24.351Z,65.15
2023-10-04T03:15:53.768Z,65.23
2023-10-04T03:18:22.550Z,65.24
2023-10-04T03:20:57.907Z,65.27
2023-10-04T03:23:28.309Z,65.44
2023-10-04T03:25:58.303Z,65.42
2023-10-04T03:28:26.697Z,65.49
2023-10-04T03:30:55.016Z,65.56
2023-10-04T03:33:23.506Z,65.56
2023-10-04T03:35:54.572Z,65.53
2023-10-04T03:38:22.276Z,65.63
2023-10-04T03:40:49.829Z,65.75
2023-10-04T03:43:17.366Z,65.66
2023-10-04T03:45:45.707Z,65.72
2023-10-04T03:48:16.845Z,65.71
2023-10-04T03:50:49.506Z,65.68
2023-10-04T03:53:18.014Z,65.80
2023-10-04T03:55:45.522Z,65.67
2023-10-04T03:58:16.632Z,65.83
2023-10-04T04:00:44.287Z,65.85
2023-10-04T04:03:12.377Z,65.82
2023-10-04T04:05:42.574Z,65.80
2023-10-04T04:08:12.439Z,65.87
2023-10-04T04:10:44.182Z,65.79
2023-10-04T04:13:14.034Z,65.82
2023-10-04T04:15:41.754Z,65.87
2023-10-04T04:18:11.458Z,65.94
2023-10-04T04:20:42.157Z,65.95
2023-10-04T04:23:11.860Z,65.97
2023-10-04T04:25:39.685Z,65.94
2023-10-04T04:28:08.879Z,65.96
2023-10-04T04:30:37.225Z,66.05
2023-10-04T04:33:08.367Z,66.06
2023-10-04T04:35:52.382Z,65.98
2023-10-04T04:38:25.537Z,66.05
2023-10-04T04:41:01.250Z,65.99
2023-10-04T04:43:37.570Z,66.10
2023-10-04T04:46:15.361Z,66.02
2023-10-04T04:48:44.471Z,65.98
2023-10-04T04:51:12.275Z,66.03
2023-10-04T04:53:41.559Z,65.99
2023-10-04T04:56:14.794Z,66.06
2023-10-04T04:58:48.443Z,66.10
2023-10-04T05:01:17.547Z,66.02
2023-10-04T05:03:52.715Z,66.10
2023-10-04T05:06:24.231Z,66.09
2023-10-04T05:08:58.216Z,66.17
2023-10-04T05:11:26.346Z,66.05
2023-10-04T05:13:56.730Z,66.12
2023-10-04T05:16:26.665Z,66.07
2023-10-04T05:18:55.415Z,66.13
2023-10-04T05:21:23.360Z,66.12
2023-10-04T05:23:52.078Z,66.18
2023-10-04T05:26:20.208Z,66.16
2023-10-04T05:28:47.870Z,66.14
2023-10-04T05:31:15.424Z,66.07
2023-10-04T05:33:43.227Z,66.00
2023-10-04T05:36:11.140Z,66.06
2023-10-04T05:38:39.140Z,65.94
2023-10-04T05:41:10.649Z,66.03
2023-10-04T05:43:40.788Z,66.05
2023-10-04T05:46:08.623Z,66.05
2023-10-04T05:48:36.726Z,66.07
2023-10-04T05:51:08.062Z,66.14
2023-10-04T05:53:36.426Z,66.17
2023-10-04T05:56:04.317Z,66.10
2023-10-04T05:58:32.878Z,66.18
2023-10-04T06:01:00.836Z,66.29
2023-10-04T06:03:41.438Z,66.23
2023-10-04T06:06:10.107Z,66.19
2023-10-04T06:08:39.373Z,66.18
2023-10-04T06:11:07.110Z,66.17
2023-10-04T06:13:35.618Z,66.24
2023-10-04T06:16:03.786Z,66.42
2023-10-04T06:18:32.007Z,66.39
2023-10-04T06:21:01.236Z,66.31
2023-10-04T06:23:32.590Z,66.44
2023-10-04T06:26:01.227Z,66.53
2023-10-04T06:28:29.919Z,66.56
2023-10-04T06:31:03.884Z,66.40
2023-10-04T06:33:34.786Z,66.40
2023-10-04T06:36:02.468Z,66.47
2023-10-04T06:38:31.935Z,66.48
2023-10-04T06:40:59.523Z,66.43
2023-10-04T06:43:32.174Z,66.48
2023-10-04T06:46:00.212Z,66.48
2023-10-04T06:48:37.335Z,66.45
2023-10-04T06:51:05.284Z,66.45
2023-10-04T06:53:34.758Z,66.41
2023-10-04T06:56:03.091Z,66.44
2023-10-04T06:58:30.843Z,66.47
2023-10-04T07:00:58.484Z,66.43
2023-10-04T07:03:28.320Z,66.41
2023-10-04T07:05:56.065Z,66.45
2023-10-04T07:08:25.587Z,66.48
2023-10-04T07:10:53.153Z,66.33
2023-10-04T07:13:20.695Z,66.21
2023-10-04T07:15:48.328Z,66.32
2023-10-04T07:18:16.135Z,66.38
2023-10-04T07:20:44.950Z,66.32
2023-10-04T07:23:16.462Z,66.45
2023-10-04T07:25:50.833Z,66.45
2023-10-04T07:28:18.541Z,66.49
2023-10-04T07:30:46.158Z,66.43
2023-10-04T07:33:13.922Z,66.46
2023-10-04T07:35:41.611Z,66.57
2023-10-04T07:38:09.226Z,66.53
2023-10-04T07:40:42.977Z,66.43
2023-10-04T07:43:10.995Z,66.44
2023-10-04T07:45:39.319Z,66.58
2023-10-04T07:48:09.653Z,66.71
2023-10-04T07:50:37.461Z,66.53
2023-10-04T07:53:06.424Z,66.49
2023-10-04T07:55:35.735Z,66.29
2023-10-04T07:58:09.536Z,66.44
2023-10-04T08:00:38.195Z,66.43
2023-10-04T08:03:08.236Z,66.53
2023-10-04T08:05:38.079Z,66.47
2023-10-04T08:08:07.372Z,66.46
2023-10-04T08:10:38.015Z,66.45
2023-10-04T08:13:07.685Z,66.38
2023-10-04T08:15:37.824Z,66.38
2023-10-04T08:18:06.675Z,66.35
2023-10-04T08:20:38.529Z,66.26
2023-10-04T08:23:10.111Z,66.43
2023-10-04T08:25:38.282Z,66.39
2023-10-04T08:28:10.947Z,66.45
2023-10-04T08:30:40.010Z,66.51
2023-10-04T08:33:10.052Z,66.45
2023-10-04T08:35:38.070Z,66.39
2023-10-04T08:38:07.273Z,66.40
2023-10-04T08:40:40.306Z,66.48
2023-10-04T08:43:11.490Z,66.62
2023-10-04T08:45:40.272Z,66.57
2023-10-04T08:48:08.493Z,66.55
2023-10-04T08:50:39.380Z,66.57
2023-10-04T08:53:29.522Z,66.54
2023-10-04T08:56:03.681Z,66.52
2023-10-04T08:58:33.165Z,66.59
2023-10-04T09:01:09.365Z,66.65
2023-10-04T09:03:52.429Z,66.53
2023-10-04T09:06:20.285Z,66.57
2023-10-04T09:08:50.634Z,66.58
2023-10-04T09:11:18.385Z,66.38
2023-10-04T09:13:49.625Z,66.40
2023-10-04T09:16:18.671Z,66.62
2023-10-04T09:18:46.482Z,66.44
2023-10-04T09:21:17.478Z,66.27
2023-10-04T09:23:45.248Z,66.30
2023-10-04T09:26:17.116Z,66.31
2023-10-04T09:28:47.189Z,66.35
2023-10-04T09:31:15.206Z,66.32
2023-10-04T09:33:44.967Z,66.29
2023-10-04T09:36:12.916Z,66.29
2023-10-04T09:38:41.456Z,66.24
2023-10-04T09:41:11.747Z,66.29
2023-10-04T09:43:41.576Z,66.30
2023-10-04T09:46:12.159Z,66.40
2023-10-04T09:48:47.839Z,66.26
2023-10-04T09:51:16.456Z,66.36
2023-10-04T09:53:45.226Z,66.23
2023-10-04T09:56:17.719Z,66.24
2023-10-04T09:58:50.898Z,66.26
2023-10-04T10:01:21.945Z,66.26
2023-10-04T10:03:57.739Z,66.36
2023-10-04T10:06:28.132Z,66.22
2023-10-04T10:09:08.921Z,66.25
2023-10-04T10:11:36.979Z,66.25
2023-10-04T10:14:10.716Z,66.26
2023-10-04T10:16:39.737Z,66.25
2023-10-04T10:19:07.428Z,66.23
2023-10-04T10:22:24.986Z,66.16
2023-10-04T10:24:58.828Z,66.01
2023-10-04T10:27:29.566Z,66.01
2023-10-04T10:30:04.457Z,65.93
2023-10-04T10:32:32.042Z,65.78
2023-10-04T10:35:06.202Z,65.83
2023-10-04T10:37:36.811Z,65.97
2023-10-04T10:40:09.931Z,65.82
2023-10-04T10:43:09.568Z,65.66
2023-10-04T10:45:37.320Z,65.49
2023-10-04T10:48:09.742Z,65.52
2023-10-04T10:50:39.842Z,65.57
2023-10-04T10:53:11.402Z,65.55
2023-10-04T10:55:42.535Z,65.50
2023-10-04T10:58:10.587Z,65.46
2023-10-04T11:00:38.617Z,65.43
2023-10-04T11:03:10.443Z,65.37
2023-10-04T11:05:39.708Z,65.39
2023-10-04T11:08:08.325Z,65.47
2023-10-04T11:10:39.263Z,65.60
2023-10-04T11:13:09.916Z,65.50
2023-10-04T11:15:38.175Z,65.63
2023-10-04T11:18:07.695Z,65.61
2023-10-04T11:20:38.659Z,65.59
2023-10-04T11:23:07.217Z,65.30
2023-10-04T11:25:41.713Z,65.12
2023-10-04T11:28:09.387Z,65.39
2023-10-04T11:30:37.482Z,65.23
2023-10-04T11:33:06.745Z,65.08
2023-10-04T11:35:35.727Z,65.01
2023-10-04T11:38:07.387Z,64.90
2023-10-04T11:40:35.440Z,64.99
2023-10-04T11:43:05.583Z,65.15
2023-10-04T11:45:34.073Z,64.99
2023-10-04T11:48:12.107Z,65.03
2023-10-04T11:50:50.020Z,64.73
2023-10-04T11:53:35.544Z,64.59
2023-10-04T11:56:08.401Z,64.70
2023-10-04T11:58:54.511Z,64.48
2023-10-04T12:01:25.675Z,64.63
2023-10-04T12:03:59.763Z,64.62
2023-10-04T12:06:31.479Z,64.56
2023-10-04T12:08:59.913Z,64.63
2023-10-04T12:11:34.787Z,64.56
2023-10-04T12:14:07.422Z,64.74
2023-10-04T12:16:38.778Z,64.65
2023-10-04T12:19:06.459Z,64.50
2023-10-04T12:21:35.455Z,64.34
2023-10-04T12:24:04.286Z,64.52
2023-10-04T12:26:32.406Z,64.56
2023-10-04T12:29:00.879Z,64.30
2023-10-04T12:31:29.826Z,64.02
2023-10-04T12:34:00.171Z,64.01
2023-10-04T12:36:27.898Z,64.07
2023-10-04T12:38:55.851Z,63.68
2023-10-04T12:41:23.493Z,63.71
2023-10-04T12:43:51.155Z,63.42
2023-10-04T12:46:18.936Z,63.05
2023-10-04T12:48:48.677Z,62.97
2023-10-04T12:51:16.468Z,63.20
2023-10-04T12:53:45.805Z,63.92
2023-10-04T12:56:15.116Z,63.52
2023-10-04T12:58:49.779Z,62.91
2023-10-04T13:01:19.394Z,62.43
2023-10-04T13:03:48.484Z,62.23
2023-10-04T13:06:16.468Z,62.34
2023-10-04T13:08:48.123Z,62.18
2023-10-04T13:11:16.349Z,62.19
2023-10-04T13:13:44.308Z,62.21
2023-10-04T13:16:12.247Z,62.50
2023-10-04T13:18:41.380Z,62.45
2023-10-04T13:21:12.823Z,62.41
2023-10-04T13:23:40.814Z,62.10
2023-10-04T13:26:14.522Z,62.06
2023-10-04T13:28:42.114Z,62.06
2023-10-04T13:31:16.558Z,62.22
2023-10-04T13:33:45.172Z,62.27
2023-10-04T13:36:12.819Z,62.53
2023-10-04T13:38:41.569Z,62.58
2023-10-04T13:41:13.937Z,62.71
2023-10-04T13:43:42.946Z,62.50
2023-10-04T13:46:10.868Z,62.36
2023-10-04T13:48:44.686Z,62.35
2023-10-04T13:51:23.182Z,62.04
2023-10-04T13:53:51.675Z,62.12
2023-10-04T13:56:19.226Z,62.17
2023-10-04T13:58:46.893Z,62.34
2023-10-04T14:01:15.711Z,62.02
2023-10-04T14:03:46.144Z,61.69
2023-10-04T14:06:14.193Z,61.25
2023-10-04T14:08:44.820Z,61.26
2023-10-04T14:11:12.401Z,61.51
2023-10-04T14:13:40.445Z,61.52
2023-10-04T14:16:08.943Z,61.69
2023-10-04T14:18:37.379Z,61.63
2023-10-04T14:21:05.676Z,61.88
2023-10-04T14:23:34.069Z,61.85
2023-10-04T14:26:01.716Z,61.97
2023-10-04T14:28:29.700Z,61.97
2023-10-04T14:31:00.697Z,62.03
2023-10-04T14:33:28.642Z,62.31
2023-10-04T14:35:56.305Z,62.47
2023-10-04T14:38:24.041Z,62.42
2023-10-04T14:40:59.470Z,63.16
2023-10-04T14:43:34.040Z,64.11
2023-10-04T14:46:05.000Z,64.50
2023-10-04T14:48:34.141Z,64.69
2023-10-04T14:51:12.622Z,65.17
2023-10-04T14:53:41.484Z,65.18
2023-10-04T14:56:09.922Z,65.41
2023-10-04T14:58:37.568Z,65.86
2023-10-04T15:01:08.165Z,65.24
2023-10-04T15:03:36.603Z,65.18
2023-10-04T15:06:04.597Z,65.31
2023-10-04T15:08:32.196Z,65.48
2023-10-04T15:11:00.369Z,65.70
2023-10-04T15:13:32.140Z,65.86
2023-10-04T15:16:10.058Z,65.91
2023-10-04T15:18:39.126Z,65.92
2023-10-04T15:21:07.757Z,66.12
2023-10-04T15:23:40.584Z,66.16
2023-10-04T15:26:11.334Z,66.22
2023-10-04T15:28:45.455Z,66.39
2023-10-04T15:31:16.062Z,66.41
2023-10-04T15:33:46.009Z,66.48
2023-10-04T15:36:15.691Z,66.43
2023-10-04T15:38:43.850Z,66.55
2023-10-04T15:41:12.757Z,66.61
2023-10-04T15:43:40.616Z,66.60
2023-10-04T15:46:10.105Z,66.71
2023-10-04T15:48:37.948Z,66.71
2023-10-04T15:51:05.785Z,66.71
2023-10-04T15:53:36.086Z,66.89
2023-10-04T15:56:04.645Z,67.01
2023-10-04T15:58:33.617Z,66.90
2023-10-04T16:01:02.779Z,66.96
2023-10-04T16:03:32.938Z,66.93
2023-10-04T16:06:02.093Z,66.94
2023-10-04T16:08:30.186Z,67.00
2023-10-04T16:11:01.245Z,67.01
2023-10-04T16:13:28.968Z,66.83
2023-10-04T16:16:04.371Z,66.61
2023-10-04T16:18:32.288Z,66.59
2023-10-04T16:21:02.545Z,66.61
2023-10-04T16:23:33.170Z,66.64
2023-10-04T16:26:01.153Z,66.67
2023-10-04T16:28:29.036Z,66.65
2023-10-04T16:30:58.776Z,66.59
2023-10-04T16:33:27.038Z,66.67
2023-10-04T16:35:56.093Z,66.63
2023-10-04T16:38:24.512Z,66.68
2023-10-04T16:40:52.845Z,66.72
2023-10-04T16:43:20.401Z,66.82
2023-10-04T16:45:52.395Z,66.72
2023-10-04T16:48:20.268Z,66.87
2023-10-04T16:50:47.866Z,66.89
2023-10-04T16:53:15.817Z,66.99
2023-10-04T16:55:44.697Z,66.95
2023-10-04T16:58:13.280Z,66.94
2023-10-04T17:00:42.142Z,67.04
2023-10-04T17:03:10.310Z,67.25
2023-10-04T17:05:38.364Z,67.28
2023-10-04T17:08:06.048Z,67.17
2023-10-04T17:10:34.195Z,67.19
2023-10-04T17:13:02.698Z,67.29
2023-10-04T17:15:30.488Z,67.23
2023-10-04T17:17:58.161Z,67.37
2023-10-04T17:20:26.118Z,67.38
2023-10-04T17:22:53.746Z,67.44
2023-10-04T17:25:21.436Z,67.53
2023-10-04T17:27:49.940Z,67.50
2023-10-04T17:30:18.150Z,67.57
2023-10-04T17:32:46.904Z,67.61
2023-10-04T17:35:19.102Z,67.73
2023-10-04T17:37:46.902Z,67.66
2023-10-04T17:40:15.067Z,67.77
2023-10-04T17:42:42.867Z,67.72
2023-10-04T17:45:12.097Z,67.87
2023-10-04T17:47:39.937Z,67.93
2023-10-04T17:50:08.808Z,67.95
2023-10-04T17:52:36.474Z,68.08
2023-10-04T17:55:05.101Z,68.03
2023-10-04T17:57:32.787Z,68.08
2023-10-04T18:00:02.555Z,68.19
2023-10-04T18:02:30.310Z,68.24
2023-10-04T18:04:58.140Z,68.31
2023-10-04T18:07:25.928Z,68.34
2023-10-04T18:09:53.943Z,68.53
2023-10-04T18:12:22.401Z,68.55
2023-10-04T18:14:52.013Z,68.63
2023-10-04T18:17:20.464Z,68.69
2023-10-04T18:19:48.097Z,68.80
2023-10-04T18:22:15.869Z,68.90
2023-10-04T18:24:44.188Z,68.93
2023-10-04T18:27:11.833Z,68.94
2023-10-04T18:29:39.373Z,68.95
2023-10-04T18:32:07.124Z,68.93
2023-10-04T18:34:35.333Z,69.10
2023-10-04T18:37:03.020Z,69.09
2023-10-04T18:39:32.205Z,69.10
2023-10-04T18:41:59.767Z,69.15
2023-10-04T18:44:27.321Z,69.17
2023-10-04T18:46:54.988Z,69.29
2023-10-04T18:49:23.874Z,69.39
2023-10-04T18:51:51.498Z,69.33
2023-10-04T18:54:19.267Z,69.53
2023-10-04T18:56:47.050Z,69.59
2023-10-04T18:59:14.584Z,69.75
2023-10-04T19:01:42.495Z,69.72
2023-10-04T19:04:11.504Z,69.73
2023-10-04T19:06:40.169Z,69.90
2023-10-04T19:09:11.055Z,69.94
2023-10-04T19:11:38.935Z,69.87
2023-10-04T19:14:08.879Z,69.89
2023-10-04T19:16:36.522Z,69.93
2023-10-04T19:19:05.286Z,69.94
2023-10-04T19:21:33.432Z,69.96
2023-10-04T19:24:02.262Z,69.95
2023-10-04T19:26:30.074Z,69.99
2023-10-04T19:28:58.533Z,69.96
2023-10-04T19:31:26.854Z,70.06
2023-10-04T19:33:56.165Z,70.07
2023-10-04T19:36:24.995Z,70.07
2023-10-04T19:38:52.766Z,70.10
2023-10-04T19:41:20.365Z,70.16
2023-10-04T19:43:47.938Z,70.14
2023-10-04T19:46:15.537Z,70.20
2023-10-04T19:48:43.271Z,70.14
2023-10-04T19:51:12.992Z,70.18
2023-10-04T19:53:41.238Z,70.15
2023-10-04T19:56:08.811Z,70.31
2023-10-04T19:58:36.437Z,70.27
2023-10-04T20:01:04.124Z,70.36
2023-10-04T20:03:33.145Z,70.37
2023-10-04T20:06:02.854Z,70.28
2023-10-04T20:08:30.477Z,70.33
2023-10-04T20:10:58.148Z,70.33
2023-10-04T20:13:28.340Z,70.40
2023-10-04T20:15:58.864Z,70.44
2023-10-04T20:18:27.382Z,70.39
2023-10-04T20:20:57.853Z,70.39
2023-10-04T20:23:29.155Z,70.39
2023-10-04T20:25:56.808Z,70.56
2023-10-04T20:28:25.296Z,70.55
2023-10-04T20:30:52.990Z,70.52
2023-10-04T20:33:21.448Z,70.55
2023-10-04T20:35:48.990Z,70.55
2023-10-04T20:38:16.617Z,70.61
2023-10-04T20:40:44.233Z,70.54
2023-10-04T20:43:13.031Z,70.63
2023-10-04T20:45:40.818Z,70.66
2023-10-04T20:48:08.836Z,70.58
2023-10-04T20:50:36.556Z,70.51
2023-10-04T20:53:04.282Z,70.65
2023-10-04T20:55:32.095Z,70.68
2023-10-04T20:57:59.725Z,70.59
2023-10-04T21:00:27.508Z,70.56
2023-10-04T21:02:55.759Z,70.60
2023-10-04T21:05:23.417Z,70.62
2023-10-04T21:07:51.051Z,70.62
2023-10-04T21:10:18.750Z,70.63
2023-10-04T21:12:46.604Z,70.62
2023-10-04T21:15:16.610Z,70.60
2023-10-04T21:17:45.677Z,70.56
2023-10-04T21:20:18.651Z,70.61
2023-10-04T21:22:47.880Z,70.81
2023-10-04T21:25:16.163Z,70.84
2023-10-04T21:27:44.130Z,70.63
2023-10-04T21:30:12.837Z,70.80
2023-10-04T21:32:44.229Z,70.81
2023-10-04T21:35:18.441Z,70.88
2023-10-04T21:37:49.606Z,70.89
2023-10-04T21:40:20.066Z,70.88
2023-10-04T21:42:48.700Z,70.93
2023-10-04T21:45:22.301Z,71.05
2023-10-04T21:47:51.953Z,70.93
2023-10-04T21:50:22.717Z,70.92
2023-10-04T21:52:50.320Z,71.00
2023-10-04T21:55:18.373Z,71.00
2023-10-04T21:57:46.000Z,71.03
2023-10-04T22:00:30.398Z,71.17
2023-10-04T22:02:58.470Z,71.12
2023-10-04T22:05:26.928Z,71.05
2023-10-04T22:07:59.719Z,71.23
2023-10-04T22:10:29.273Z,71.27
2023-10-04T22:12:57.267Z,71.28
2023-10-04T22:15:25.830Z,71.24
2023-10-04T22:17:54.139Z,71.23
2023-10-04T22:20:24.157Z,71.29
2023-10-04T22:22:52.308Z,71.29
2023-10-04T22:25:21.453Z,71.28
2023-10-04T22:27:50.917Z,71.43
2023-10-04T22:30:20.097Z,71.47
2023-10-04T22:32:50.715Z,71.37
2023-10-04T22:35:23.644Z,71.52
2023-10-04T22:37:53.506Z,71.40
2023-10-04T22:40:24.443Z,71.41
2023-10-04T22:42:54.344Z,71.47
2023-10-04T22:45:22.271Z,71.46
2023-10-04T22:47:51.302Z,71.49
2023-10-04T22:50:19.806Z,71.49
2023-10-04T22:52:48.205Z,71.54
2023-10-04T22:55:17.405Z,71.60
2023-10-04T22:57:49.264Z,71.55
2023-10-04T23:00:24.989Z,71.63
2023-10-04T23:02:57.703Z,71.58
2023-10-04T23:05:28.863Z,71.61
2023-10-04T23:07:56.481Z,71.56
2023-10-04T23:10:24.411Z,71.57
2023-10-04T23:12:54.421Z,71.56
2023-10-04T23:15:29.433Z,71.55
2023-10-04T23:18:11.419Z,71.60
2023-10-04T23:20:39.346Z,71.56
2023-10-04T23:23:15.926Z,71.60
2023-10-04T23:25:49.629Z,71.78
2023-10-04T23:28:18.390Z,71.67
2023-10-04T23:30:47.961Z,71.79
2023-10-04T23:33:21.179Z,71.75
2023-10-04T23:36:07.201Z,71.81
2023-10-04T23:38:34.821Z,71.79
2023-10-04T23:41:28.961Z,71.88
2023-10-04T23:43:56.924Z,71.88
2023-10-04T23:46:32.014Z,71.92
2023-10-04T23:49:15.951Z,71.89
2023-10-04T23:51:44.741Z,71.97
2023-10-04T23:54:21.304Z,71.93
2023-10-04T23:56:55.468Z,71.86
2023-10-04T23:59:25.072Z,71.99
